createdAt,value
2023-09-17T00:00:34.189Z,14.80
2023-09-17T00:02:57.317Z,14.53
2023-09-17T00:05:20.241Z,19.65
2023-09-17T00:07:44.222Z,15.77
2023-09-17T00:10:07.271Z,17.17
2023-09-17T00:12:29.979Z,17.48
2023-09-17T00:14:52.751Z,16.60
2023-09-17T00:17:15.612Z,19.17
2023-09-17T00:19:38.369Z,15.48
2023-09-17T00:22:02.269Z,20.10
2023-09-17T00:24:26.136Z,20.60
2023-09-17T00:26:49.157Z,17.33
2023-09-17T00:29:11.776Z,17.20
2023-09-17T00:31:35.835Z,16.85
2023-09-17T00:33:58.437Z,17.88
2023-09-17T00:36:21.396Z,19.08
2023-09-17T00:38:44.120Z,16.50
2023-09-17T00:41:07.111Z,16.98
2023-09-17T00:43:31.446Z,17.85
2023-09-17T00:45:54.638Z,16.60
2023-09-17T00:48:17.593Z,17.20
2023-09-17T00:50:41.097Z,17.07
2023-09-17T00:53:05.299Z,20.58
2023-09-17T00:55:31.023Z,17.50
2023-09-17T00:57:53.851Z,18.27
2023-09-17T01:00:18.011Z,17.27
2023-09-17T01:02:41.850Z,15.63
2023-09-17T01:05:06.187Z,15.82
2023-09-17T01:07:29.506Z,15.82
2023-09-17T01:09:52.143Z,15.23
2023-09-17T01:12:15.431Z,17.38
2023-09-17T01:14:39.167Z,18.30
2023-09-17T01:17:07.466Z,16.15
2023-09-17T01:19:33.863Z,18.00
2023-09-17T01:22:07.906Z,18.98
2023-09-17T01:24:47.070Z,16.52
2023-09-17T01:27:12.149Z,19.30
2023-09-17T01:29:40.073Z,16.52
2023-09-17T01:32:04.893Z,18.08
2023-09-17T01:34:31.340Z,17.63
2023-09-17T01:36:58.884Z,17.35
2023-09-17T01:39:25.191Z,17.03
2023-09-17T01:41:48.234Z,18.75
2023-09-17T01:44:11.615Z,16.70
2023-09-17T01:46:36.297Z,16.33
2023-09-17T01:49:00.690Z,15.45
2023-09-17T01:51:23.838Z,16.67
2023-09-17T01:53:46.973Z,18.42
2023-09-17T01:56:13.090Z,17.00
2023-09-17T01:58:36.352Z,16.05
2023-09-17T02:00:59.175Z,18.00
2023-09-17T02:03:21.916Z,16.47
2023-09-17T02:05:44.633Z,17.13
2023-09-17T02:08:07.312Z,16.90
2023-09-17T02:10:30.076Z,17.00
2023-09-17T02:12:53.468Z,17.60
2023-09-17T02:15:16.175Z,16.37
2023-09-17T02:17:39.608Z,15.25
2023-09-17T02:20:03.658Z,15.40
2023-09-17T02:22:26.344Z,16.17
2023-09-17T02:24:49.698Z,16.00
2023-09-17T02:27:12.421Z,16.07
2023-09-17T02:29:35.499Z,15.85
2023-09-17T02:31:59.031Z,16.15
2023-09-17T02:34:21.719Z,15.10
2023-09-17T02:36:44.297Z,20.02
2023-09-17T02:39:09.550Z,14.87
2023-09-17T02:41:32.412Z,15.23
2023-09-17T02:43:55.920Z,14.43
2023-09-17T02:46:19.580Z,15.77
2023-09-17T02:48:43.097Z,16.65
2023-09-17T02:51:05.684Z,15.70
2023-09-17T02:53:28.461Z,13.88
2023-09-17T02:55:51.143Z,16.23
2023-09-17T02:58:14.467Z,15.38
2023-09-17T03:00:40.053Z,14.65
2023-09-17T03:03:03.559Z,14.10
2023-09-17T03:05:26.621Z,14.80
2023-09-17T03:07:51.404Z,17.73
2023-09-17T03:10:14.894Z,16.45
2023-09-17T03:12:39.765Z,14.45
2023-09-17T03:15:02.784Z,16.40
2023-09-17T03:17:25.670Z,16.13
2023-09-17T03:19:49.467Z,16.85
2023-09-17T03:22:12.817Z,16.00
2023-09-17T03:24:35.998Z,14.82
2023-09-17T03:26:58.944Z,15.80
2023-09-17T03:29:21.820Z,15.45
2023-09-17T03:31:46.786Z,16.25
2023-09-17T03:34:10.023Z,14.90
2023-09-17T03:36:36.554Z,14.73
2023-09-17T03:39:01.041Z,16.13
2023-09-17T03:41:24.672Z,14.90
2023-09-17T03:43:47.377Z,15.23
2023-09-17T03:46:10.896Z,15.65
2023-09-17T03:48:34.029Z,15.48
2023-09-17T03:50:57.483Z,15.00
2023-09-17T03:53:20.435Z,14.13
2023-09-17T03:55:46.235Z,15.35
2023-09-17T03:58:10.391Z,15.88
2023-09-17T04:00:37.392Z,16.63
2023-09-17T04:03:01.510Z,16.90
2023-09-17T04:05:25.405Z,14.23
2023-09-17T04:07:48.842Z,14.35
2023-09-17T04:10:13.433Z,15.65
2023-09-17T04:12:37.394Z,14.65
2023-09-17T04:15:00.163Z,14.27
2023-09-17T04:17:22.877Z,14.73
2023-09-17T04:19:45.767Z,16.23
2023-09-17T04:22:08.367Z,14.38
2023-09-17T04:24:33.117Z,15.80
2023-09-17T04:26:55.911Z,16.00
2023-09-17T04:29:18.588Z,14.75
2023-09-17T04:31:41.377Z,15.93
2023-09-17T04:34:04.806Z,14.48
2023-09-17T04:36:27.410Z,15.98
2023-09-17T04:38:50.126Z,16.20
2023-09-17T04:41:12.748Z,15.05
2023-09-17T04:43:35.416Z,15.20
2023-09-17T04:45:59.374Z,15.85
2023-09-17T04:48:28.634Z,16.88
2023-09-17T04:50:51.327Z,15.13
2023-09-17T04:53:14.151Z,14.73
2023-09-17T04:55:39.826Z,17.50
2023-09-17T04:58:03.316Z,17.45
2023-09-17T05:00:26.477Z,15.15
2023-09-17T05:02:50.453Z,16.37
2023-09-17T05:05:14.214Z,17.50
2023-09-17T05:07:39.323Z,15.23
2023-09-17T05:10:01.976Z,15.38
2023-09-17T05:12:25.031Z,17.08
2023-09-17T05:14:48.151Z,16.33
2023-09-17T05:17:10.925Z,14.57
2023-09-17T05:19:34.052Z,16.02
2023-09-17T05:21:57.320Z,13.35
2023-09-17T05:24:20.238Z,14.15
2023-09-17T05:26:42.929Z,13.10
2023-09-17T05:29:05.663Z,16.58
2023-09-17T05:31:29.130Z,16.98
2023-09-17T05:33:52.202Z,15.70
2023-09-17T05:36:15.083Z,16.45
2023-09-17T05:38:38.443Z,13.93
2023-09-17T05:41:02.328Z,14.95
2023-09-17T05:43:25.991Z,15.10
2023-09-17T05:45:50.228Z,14.77
2023-09-17T05:48:15.209Z,15.88
2023-09-17T05:50:38.380Z,15.13
2023-09-17T05:53:01.148Z,13.55
2023-09-17T05:55:23.927Z,15.52
2023-09-17T05:57:46.704Z,14.63
2023-09-17T06:00:10.032Z,14.35
2023-09-17T06:02:38.619Z,14.23
2023-09-17T06:05:01.481Z,15.00
2023-09-17T06:07:24.474Z,13.82
2023-09-17T06:09:48.128Z,15.57
2023-09-17T06:12:10.799Z,15.25
2023-09-17T06:14:34.417Z,17.57
2023-09-17T06:16:58.438Z,15.07
2023-09-17T06:19:21.861Z,17.42
2023-09-17T06:21:44.849Z,16.95
2023-09-17T06:24:07.909Z,16.08
2023-09-17T06:26:30.970Z,15.93
2023-09-17T06:28:53.684Z,16.55
2023-09-17T06:31:16.904Z,17.17
2023-09-17T06:33:40.341Z,14.93
2023-09-17T06:36:05.016Z,16.95
2023-09-17T06:38:28.108Z,17.50
2023-09-17T06:40:51.182Z,17.55
2023-09-17T06:43:14.467Z,15.70
2023-09-17T06:45:37.191Z,18.88
2023-09-17T06:47:59.875Z,16.92
2023-09-17T06:50:22.509Z,16.43
2023-09-17T06:52:45.301Z,17.13
2023-09-17T06:55:07.995Z,18.50
2023-09-17T06:57:30.800Z,16.65
2023-09-17T06:59:53.631Z,17.13
2023-09-17T07:02:16.314Z,17.67
2023-09-17T07:04:39.012Z,17.85
2023-09-17T07:07:02.053Z,16.63
2023-09-17T07:09:25.694Z,19.27
2023-09-17T07:11:48.474Z,17.45
2023-09-17T07:14:11.545Z,16.83
2023-09-17T07:16:34.513Z,17.52
2023-09-17T07:18:57.100Z,16.35
2023-09-17T07:21:19.823Z,17.02
2023-09-17T07:23:43.937Z,17.08
2023-09-17T07:26:07.851Z,17.37
2023-09-17T07:28:31.313Z,19.00
2023-09-17T07:30:56.359Z,16.35
2023-09-17T07:33:19.029Z,17.52
2023-09-17T07:35:41.860Z,21.25
2023-09-17T07:38:04.662Z,18.93
2023-09-17T07:40:27.803Z,16.88
2023-09-17T07:42:50.426Z,16.80
2023-09-17T07:45:14.467Z,17.73
2023-09-17T07:47:37.515Z,16.80
2023-09-17T07:50:00.192Z,24.07
2023-09-17T07:52:22.957Z,17.42
2023-09-17T07:54:45.731Z,17.65
2023-09-17T07:57:10.555Z,19.95
2023-09-17T07:59:33.299Z,17.42
2023-09-17T08:01:56.128Z,17.53
2023-09-17T08:04:18.950Z,17.15
2023-09-17T08:06:41.779Z,19.77
2023-09-17T08:09:07.315Z,18.00
2023-09-17T08:11:30.774Z,17.92
2023-09-17T08:13:53.906Z,18.67
2023-09-17T08:16:17.582Z,16.42
2023-09-17T08:18:40.417Z,18.13
2023-09-17T08:21:05.021Z,18.30
2023-09-17T08:23:28.606Z,17.42
2023-09-17T08:26:12.012Z,17.53
2023-09-17T08:28:57.286Z,18.40
2023-09-17T08:31:39.969Z,19.23
2023-09-17T08:34:22.809Z,18.77
2023-09-17T08:36:48.366Z,20.92
2023-09-17T08:39:12.441Z,17.60
2023-09-17T08:41:38.290Z,19.15
2023-09-17T08:44:01.264Z,16.77
2023-09-17T08:46:27.456Z,22.02
2023-09-17T08:48:51.250Z,18.75
2023-09-17T08:51:16.853Z,18.20
2023-09-17T08:53:51.625Z,18.85
2023-09-17T08:56:18.389Z,17.33
2023-09-17T08:58:49.616Z,17.40
2023-09-17T09:01:16.524Z,18.65
2023-09-17T09:03:41.060Z,19.80
2023-09-17T09:06:05.083Z,21.65
2023-09-17T09:08:29.309Z,17.95
2023-09-17T09:10:52.186Z,17.63
2023-09-17T09:13:15.201Z,18.67
2023-09-17T09:15:38.032Z,19.57
2023-09-17T09:18:01.208Z,18.25
2023-09-17T09:20:24.012Z,18.55
2023-09-17T09:22:46.876Z,20.75
2023-09-17T09:25:10.813Z,18.27
2023-09-17T09:27:33.870Z,17.47
2023-09-17T09:29:56.573Z,26.90
2023-09-17T09:32:19.791Z,18.45
2023-09-17T09:34:43.640Z,17.38
2023-09-17T09:37:07.898Z,17.48
2023-09-17T09:39:31.619Z,17.77
2023-09-17T09:41:54.408Z,18.25
2023-09-17T09:44:17.333Z,20.25
2023-09-17T09:46:40.077Z,19.67
2023-09-17T09:49:03.296Z,17.95
2023-09-17T09:51:26.796Z,19.17
2023-09-17T09:53:50.010Z,19.17
2023-09-17T09:56:13.398Z,21.10
2023-09-17T09:58:37.422Z,18.00
2023-09-17T10:01:04.096Z,15.77
2023-09-17T10:03:26.772Z,18.63
2023-09-17T10:05:49.975Z,16.58
2023-09-17T10:08:54.897Z,18.02
2023-09-17T10:11:18.225Z,15.73
2023-09-17T10:13:42.071Z,17.20
2023-09-17T10:16:05.313Z,17.30
2023-09-17T10:18:30.208Z,16.67
2023-09-17T10:20:54.313Z,16.63
2023-09-17T10:23:18.195Z,16.80
2023-09-17T10:25:45.344Z,18.25
2023-09-17T10:28:11.479Z,15.27
2023-09-17T10:30:34.843Z,16.52
2023-09-17T10:32:59.114Z,16.90
2023-09-17T10:35:22.218Z,15.13
2023-09-17T10:37:45.433Z,17.63
2023-09-17T10:40:13.528Z,15.67
2023-09-17T10:42:37.193Z,17.13
2023-09-17T10:45:03.411Z,17.05
2023-09-17T10:47:27.177Z,15.55
2023-09-17T10:49:50.136Z,16.50
2023-09-17T10:52:13.321Z,16.10
2023-09-17T10:54:36.297Z,16.15
2023-09-17T10:57:02.502Z,18.17
2023-09-17T10:59:25.616Z,18.25
2023-09-17T11:01:50.724Z,16.08
2023-09-17T11:04:18.129Z,18.43
2023-09-17T11:06:43.356Z,15.63
2023-09-17T11:09:06.450Z,17.10
2023-09-17T11:11:31.078Z,16.40
2023-09-17T11:13:54.626Z,16.52
2023-09-17T11:16:19.639Z,15.67
2023-09-17T11:18:46.451Z,17.63
2023-09-17T11:21:11.707Z,18.90
2023-09-17T11:23:39.138Z,16.38
2023-09-17T11:26:01.974Z,16.77
2023-09-17T11:28:36.400Z,17.73
2023-09-17T11:31:00.595Z,17.15
2023-09-17T11:33:24.296Z,16.95
2023-09-17T11:35:48.959Z,16.10
2023-09-17T11:38:12.041Z,16.45
2023-09-17T11:40:34.871Z,19.50
2023-09-17T11:42:58.928Z,15.18
2023-09-17T11:45:22.002Z,14.85
2023-09-17T11:47:45.694Z,16.10
2023-09-17T11:50:10.055Z,16.80
2023-09-17T11:52:34.401Z,15.67
2023-09-17T11:55:09.170Z,15.45
2023-09-17T11:57:31.915Z,16.58
2023-09-17T11:59:56.972Z,15.80
2023-09-17T12:02:20.841Z,15.90
2023-09-17T12:04:45.470Z,16.00
2023-09-17T12:07:13.368Z,16.15
2023-09-17T12:10:02.564Z,16.42
2023-09-17T12:12:26.330Z,16.95
2023-09-17T12:14:49.976Z,16.63
2023-09-17T12:17:12.954Z,16.23
2023-09-17T12:19:35.908Z,15.27
2023-09-17T12:22:00.903Z,16.92
2023-09-17T12:24:37.108Z,16.83
2023-09-17T12:27:33.724Z,16.45
2023-09-17T12:29:57.105Z,18.07
2023-09-17T12:32:22.935Z,16.33
2023-09-17T12:34:45.692Z,16.00
2023-09-17T12:37:08.932Z,17.30
2023-09-17T12:39:31.920Z,17.35
2023-09-17T12:41:54.546Z,16.60
2023-09-17T12:44:18.361Z,16.25
2023-09-17T12:46:41.344Z,19.48
2023-09-17T12:49:04.658Z,17.00
2023-09-17T12:51:27.389Z,17.80
2023-09-17T12:53:50.410Z,18.40
2023-09-17T12:56:13.617Z,20.23
2023-09-17T12:58:36.458Z,18.92
2023-09-17T13:01:10.880Z,19.35
2023-09-17T13:03:33.843Z,17.25
2023-09-17T13:05:58.283Z,19.30
2023-09-17T13:08:21.283Z,18.00
2023-09-17T13:10:44.028Z,18.38
2023-09-17T13:13:07.106Z,16.27
2023-09-17T13:15:29.848Z,19.35
2023-09-17T13:17:52.530Z,19.17
2023-09-17T13:20:15.408Z,21.60
2023-09-17T13:22:40.910Z,18.55
2023-09-17T13:25:03.840Z,18.27
2023-09-17T13:27:30.588Z,18.60
2023-09-17T13:29:56.422Z,18.77
2023-09-17T13:32:20.292Z,18.85
2023-09-17T13:34:44.143Z,17.33
2023-09-17T13:37:07.207Z,19.23
2023-09-17T13:39:29.929Z,19.33
2023-09-17T13:41:57.362Z,21.03
2023-09-17T13:44:20.022Z,18.20
2023-09-17T13:46:48.867Z,17.98
2023-09-17T13:49:11.460Z,18.40
2023-09-17T13:51:34.124Z,20.02
2023-09-17T13:53:56.772Z,17.87
2023-09-17T13:56:19.517Z,18.98
2023-09-17T13:58:42.174Z,18.38
2023-09-17T14:01:07.149Z,18.73
2023-09-17T14:03:29.986Z,19.33
2023-09-17T14:05:52.682Z,19.50
2023-09-17T14:08:15.331Z,18.33
2023-09-17T14:10:38.558Z,18.23
2023-09-17T14:13:05.591Z,17.48
2023-09-17T14:15:28.532Z,18.52
2023-09-17T14:17:51.255Z,19.63
2023-09-17T14:20:14.267Z,18.75
2023-09-17T14:22:38.498Z,19.65
2023-09-17T14:25:01.292Z,17.17
2023-09-17T14:27:24.110Z,18.33
2023-09-17T14:29:46.772Z,17.97
2023-09-17T14:32:09.592Z,18.83
2023-09-17T14:34:32.504Z,17.85
2023-09-17T14:36:55.176Z,16.52
2023-09-17T14:39:17.827Z,18.65
2023-09-17T14:41:40.840Z,18.70
2023-09-17T14:44:03.751Z,17.77
2023-09-17T14:46:26.509Z,16.30
2023-09-17T14:48:50.247Z,17.40
2023-09-17T14:51:13.064Z,17.08
2023-09-17T14:53:35.633Z,15.97
2023-09-17T14:55:58.579Z,19.10
2023-09-17T14:58:21.468Z,16.35
2023-09-17T15:00:44.356Z,19.80
2023-09-17T15:03:07.211Z,18.00
2023-09-17T15:05:30.623Z,16.87
2023-09-17T15:07:53.366Z,17.95
2023-09-17T15:10:19.191Z,18.50
2023-09-17T15:12:41.775Z,17.80
2023-09-17T15:15:08.405Z,17.20
2023-09-17T15:17:31.441Z,16.97
2023-09-17T15:19:54.319Z,16.95
2023-09-17T15:22:17.247Z,18.40
2023-09-17T15:24:39.853Z,17.25
2023-09-17T15:27:02.763Z,17.63
2023-09-17T15:29:25.876Z,18.63
2023-09-17T15:31:49.328Z,17.60
2023-09-17T15:34:14.256Z,20.13
2023-09-17T15:36:42.468Z,20.17
2023-09-17T15:39:06.433Z,18.70
2023-09-17T15:41:30.087Z,19.13
2023-09-17T15:43:52.854Z,19.35
2023-09-17T15:46:16.047Z,19.30
2023-09-17T15:48:39.008Z,19.52
2023-09-17T15:51:03.367Z,18.48
2023-09-17T15:53:26.191Z,18.70
2023-09-17T15:55:49.148Z,19.85
2023-09-17T15:58:12.744Z,18.92
2023-09-17T16:00:35.431Z,22.58
2023-09-17T16:02:58.493Z,22.58
2023-09-17T16:05:22.454Z,21.53
2023-09-17T16:07:51.309Z,20.25
2023-09-17T16:10:14.199Z,20.02
2023-09-17T16:12:36.902Z,21.75
2023-09-17T16:14:59.809Z,18.90
2023-09-17T16:17:22.488Z,20.00
2023-09-17T16:19:55.713Z,19.38
2023-09-17T16:22:18.659Z,19.98
2023-09-17T16:24:41.706Z,19.15
2023-09-17T16:27:05.671Z,21.38
2023-09-17T16:29:28.417Z,19.40
2023-09-17T16:31:52.281Z,18.15
2023-09-17T16:34:15.278Z,19.95
2023-09-17T16:36:38.027Z,20.42
2023-09-17T16:39:00.927Z,21.85
2023-09-17T16:41:23.826Z,19.40
2023-09-17T16:43:46.694Z,22.58
2023-09-17T16:46:09.406Z,22.17
2023-09-17T16:48:32.188Z,21.60
2023-09-17T16:50:55.174Z,23.52
2023-09-17T16:53:19.485Z,22.33
2023-09-17T16:55:42.940Z,23.45
2023-09-17T16:58:06.244Z,23.05
2023-09-17T17:00:29.420Z,25.88
2023-09-17T17:02:52.495Z,27.23
2023-09-17T17:05:15.378Z,26.20
2023-09-17T17:07:37.985Z,28.85
2023-09-17T17:10:00.941Z,29.65
2023-09-17T17:12:23.848Z,27.65
2023-09-17T17:14:48.928Z,30.70
2023-09-17T17:17:11.918Z,31.33
2023-09-17T17:19:34.719Z,32.35
2023-09-17T17:21:57.507Z,32.25
2023-09-17T17:24:20.716Z,34.60
2023-09-17T17:26:43.426Z,32.58
2023-09-17T17:29:06.333Z,32.07
2023-09-17T17:31:29.187Z,33.92
2023-09-17T17:33:54.448Z,30.60
2023-09-17T17:36:17.612Z,29.25
2023-09-17T17:38:40.754Z,32.20
2023-09-17T17:41:03.496Z,29.67
2023-09-17T17:43:26.544Z,31.35
2023-09-17T17:45:49.556Z,29.70
2023-09-17T17:48:33.836Z,27.42
2023-09-17T17:50:57.530Z,28.55
2023-09-17T17:53:20.445Z,28.80
2023-09-17T17:55:43.201Z,27.38
2023-09-17T17:58:05.830Z,25.42
2023-09-17T18:00:28.788Z,25.52
2023-09-17T18:02:51.636Z,25.73
2023-09-17T18:05:14.921Z,25.67
2023-09-17T18:07:39.569Z,24.40
2023-09-17T18:10:05.780Z,28.25
2023-09-17T18:12:28.835Z,24.77
2023-09-17T18:14:51.585Z,27.05
2023-09-17T18:17:14.312Z,25.57
2023-09-17T18:19:37.337Z,26.77
2023-09-17T18:22:00.044Z,25.65
2023-09-17T18:24:24.940Z,27.10
2023-09-17T18:26:47.900Z,26.45
2023-09-17T18:29:11.619Z,23.93
2023-09-17T18:31:34.345Z,25.75
2023-09-17T18:33:57.023Z,24.15
2023-09-17T18:36:20.802Z,25.73
2023-09-17T18:38:45.330Z,26.85
2023-09-17T18:41:08.376Z,24.33
2023-09-17T18:43:31.521Z,25.85
2023-09-17T18:45:54.506Z,24.50
2023-09-17T18:48:19.068Z,25.73
2023-09-17T18:50:42.616Z,26.45
2023-09-17T18:53:05.730Z,24.80
2023-09-17T18:55:28.782Z,26.17
2023-09-17T18:57:51.650Z,26.08
2023-09-17T19:00:16.617Z,23.33
2023-09-17T19:02:41.113Z,24.15
2023-09-17T19:05:05.487Z,26.80
2023-09-17T19:07:28.206Z,26.08
2023-09-17T19:09:50.983Z,29.30
2023-09-17T19:12:13.911Z,27.67
2023-09-17T19:14:41.373Z,27.77
2023-09-17T19:17:07.420Z,25.13
2023-09-17T19:19:31.529Z,25.40
2023-09-17T19:21:54.478Z,24.92
2023-09-17T19:24:17.758Z,24.83
2023-09-17T19:26:40.918Z,23.80
2023-09-17T19:29:04.513Z,23.97
2023-09-17T19:31:27.604Z,24.42
2023-09-17T19:33:50.864Z,23.15
2023-09-17T19:36:14.128Z,22.35
2023-09-17T19:38:37.124Z,23.63
2023-09-17T19:41:01.449Z,24.43
2023-09-17T19:43:24.293Z,23.75
2023-09-17T19:45:53.030Z,25.23
2023-09-17T19:48:15.961Z,23.42
2023-09-17T19:50:39.544Z,25.77
2023-09-17T19:53:02.252Z,27.10
2023-09-17T19:55:26.075Z,25.30
2023-09-17T19:57:49.637Z,26.25
2023-09-17T20:00:13.482Z,24.40
2023-09-17T20:02:38.783Z,23.38
2023-09-17T20:05:01.667Z,24.93
2023-09-17T20:07:25.838Z,24.92
2023-09-17T20:09:48.592Z,24.52
2023-09-17T20:12:11.267Z,24.35
2023-09-17T20:14:33.925Z,25.70
2023-09-17T20:16:56.592Z,24.30
2023-09-17T20:19:19.267Z,27.13
2023-09-17T20:21:41.906Z,24.95
2023-09-17T20:24:07.228Z,24.95
2023-09-17T20:26:29.865Z,25.02
2023-09-17T20:28:52.792Z,24.97
2023-09-17T20:31:15.620Z,22.60
2023-09-17T20:33:38.414Z,24.45
2023-09-17T20:36:01.515Z,22.40
2023-09-17T20:38:24.293Z,25.65
2023-09-17T20:40:47.579Z,24.50
2023-09-17T20:43:10.436Z,23.77
2023-09-17T20:45:33.184Z,24.77
2023-09-17T20:47:57.413Z,22.88
2023-09-17T20:51:03.712Z,20.83
2023-09-17T20:53:28.519Z,23.83
2023-09-17T20:55:54.172Z,19.77
2023-09-17T20:58:17.563Z,27.77
2023-09-17T21:00:40.223Z,20.77
2023-09-17T21:03:03.176Z,22.20
2023-09-17T21:05:26.361Z,27.13
2023-09-17T21:07:49.048Z,20.63
2023-09-17T21:10:12.518Z,21.10
2023-09-17T21:12:35.221Z,21.50
2023-09-17T21:14:57.916Z,21.73
2023-09-17T21:17:20.737Z,23.60
2023-09-17T21:19:43.808Z,22.08
2023-09-17T21:22:08.444Z,21.92
2023-09-17T21:24:32.011Z,24.50
2023-09-17T21:26:54.762Z,24.13
2023-09-17T21:29:17.529Z,22.13
2023-09-17T21:31:40.557Z,23.85
2023-09-17T21:34:04.321Z,24.83
2023-09-17T21:36:27.020Z,22.98
2023-09-17T21:38:49.974Z,22.02
2023-09-17T21:41:13.371Z,22.03
2023-09-17T21:43:36.336Z,21.48
2023-09-17T21:45:59.107Z,20.58
2023-09-17T21:48:21.958Z,20.80
2023-09-17T21:50:44.844Z,19.90
2023-09-17T21:53:07.490Z,22.70
2023-09-17T21:55:30.385Z,19.58
2023-09-17T21:57:53.077Z,19.60
2023-09-17T22:00:25.069Z,18.92
2023-09-17T22:02:49.244Z,18.55
2023-09-17T22:05:12.056Z,19.40
2023-09-17T22:07:34.940Z,19.55
2023-09-17T22:09:57.630Z,21.00
2023-09-17T22:12:20.524Z,20.98
2023-09-17T22:14:43.228Z,17.70
2023-09-17T22:17:06.602Z,19.23
2023-09-17T22:19:30.616Z,22.20
2023-09-17T22:21:53.563Z,18.67
2023-09-17T22:24:17.033Z,17.85
2023-09-17T22:26:40.225Z,17.90
2023-09-17T22:29:03.476Z,18.03
2023-09-17T22:31:27.023Z,17.95
2023-09-17T22:33:51.638Z,17.10
2023-09-17T22:36:14.391Z,17.98
2023-09-17T22:38:40.533Z,15.95
2023-09-17T22:41:03.218Z,14.83
2023-09-17T22:43:25.874Z,14.88
2023-09-17T22:45:48.560Z,16.35
2023-09-17T22:48:11.177Z,17.08
2023-09-17T22:50:34.170Z,15.63
2023-09-17T22:52:56.853Z,14.50
2023-09-17T22:55:19.566Z,14.63
2023-09-17T22:57:42.217Z,15.98
2023-09-17T23:00:09.094Z,14.45
2023-09-17T23:02:31.814Z,15.02
2023-09-17T23:04:54.778Z,15.73
2023-09-17T23:07:17.733Z,12.93
2023-09-17T23:09:40.418Z,16.15
2023-09-17T23:12:03.722Z,15.93
2023-09-17T23:14:26.497Z,14.38
2023-09-17T23:16:49.598Z,14.97
2023-09-17T23:19:13.155Z,16.40
2023-09-17T23:21:37.442Z,13.75
2023-09-17T23:24:00.168Z,14.13
2023-09-17T23:26:24.803Z,15.27
2023-09-17T23:28:47.601Z,15.03
2023-09-17T23:31:12.047Z,15.13
2023-09-17T23:33:35.091Z,13.90
2023-09-17T23:35:57.855Z,14.05
2023-09-17T23:38:20.494Z,13.95
2023-09-17T23:40:43.102Z,14.43
2023-09-17T23:43:05.743Z,14.35
2023-09-17T23:45:28.439Z,16.00
2023-09-17T23:47:51.182Z,15.07
2023-09-17T23:50:15.440Z,15.05
2023-09-17T23:52:39.872Z,12.87
2023-09-17T23:55:02.632Z,14.30
2023-09-17T23:57:26.972Z,13.15
2023-09-17T23:59:49.707Z,14.35
